Decoded Metar for VOMM (MADRAS in INDIA) (IATA:MAA) | Meteo·Mobile Aviation Weather
aviador You're here:

VOMM Decoded Metar

MADRAS in INDIA
Report Time2019-02-16 17:30:00
UTC Time2019-02-16 17:53:36
Flight Rules mvfr MVFR
Wind120° at 06 kt
W.Decomp.*RWY 12: 6.0 kt HW 0.2 kt RCW
RWY 07: 3.7 kt HW 4.7 kt RCW
W.Rank120° ranks 12
Current wind is below 120° avg. (7.5)
Visibility6000 m
Phenomena:N/A
Clouds:Few 020 Hf
Expected CloudBase > 1,600 ft AGL from Temp-Dew spread
CeilingNone
Temp28°C (ISA +13)
Dew Point24°C (79% RH)
Heat Index31.9°C
QNH1015 hPa
Density Alt1,883 ft
Elevation52 ft
Report Wrong Elevation
Raw Report
METAR VOMM 161730Z 12006KT 6000 FEW020 28/24 Q1015 NOSIG=

Extra information for VOMM:More info

Metar Taf Metar & Taf Last 4 Metars F.Rules Stats Wind Profile Meteogram Temp Stats Airport Information Weather charts Add Link Nearby VenuesMetar ALERT Operation Metar Decoded Social comments